Time;durP1;ratioP1;P1;durP2;ratioP2;P2;SDS_P1;SDS_P2;PMS_P1;PMS_P2;Temp;Humidity;BMP_temperature;BMP_pressure;BME280_temperature;BME280_humidity;BME280_pressure;Samples;Min_cycle;Max_cycle;Signal;HPM_P1;HPM_P2
2023/05/13 00:01:25;;;;;;;12.80;10.07;;;;;;;;;;4984309;28;20540;-62
2023/05/13 00:03:50;;;;;;;15.60;11.13;;;;;;;;;;4981141;28;20148;-62
2023/05/13 00:06:16;;;;;;;13.60;10.60;;;;;;;;;;4969468;28;20121;-62
2023/05/13 00:08:41;;;;;;;13.68;10.73;;;;;;;;;;4982781;28;20406;-62
2023/05/13 00:11:07;;;;;;;12.45;10.65;;;;;;;;;;4979267;28;20039;-62
2023/05/13 00:13:32;;;;;;;15.18;11.70;;;;;;;;;;4981530;28;20559;-62
2023/05/13 00:15:57;;;;;;;13.77;10.85;;;;;;;;;;4978132;28;20038;-62
2023/05/13 00:18:23;;;;;;;16.05;11.65;;;;;;;;;;4981578;28;20514;-62
2023/05/13 00:20:48;;;;;;;13.73;11.10;;;;;;;;;;4981220;28;20077;-61
2023/05/13 00:23:14;;;;;;;15.15;11.63;;;;;;;;;;4980865;28;20396;-64
2023/05/13 00:25:40;;;;;;;13.20;11.18;;;;;;;;;;4977447;28;20515;-62
2023/05/13 00:28:06;;;;;;;16.20;10.70;;;;;;;;;;4982945;28;20405;-62
2023/05/13 00:30:31;;;;;;;14.82;11.27;;;;;;;;;;4982320;28;20038;-62
2023/05/13 00:32:58;;;;;;;14.80;11.60;;;;;;;;;;4980372;28;20465;-61
2023/05/13 00:35:23;;;;;;;17.05;11.80;;;;;;;;;;4978949;28;20501;-62
2023/05/13 00:37:49;;;;;;;19.20;12.75;;;;;;;;;;4980819;28;20109;-61
2023/05/13 00:40:24;;;;;;;14.80;12.20;;;;;;;;;;4979204;28;20050;-62
2023/05/13 00:42:49;;;;;;;;;;;;;;;;;;4980446;28;20406;-62
2023/05/13 00:45:15;;;;;;;14.77;11.05;;;;;;;;;;4977555;28;19918;-62
2023/05/13 00:47:41;;;;;;;15.48;11.98;;;;;;;;;;4979697;28;20042;-62
2023/05/13 00:50:08;;;;;;;16.00;12.27;;;;;;;;;;4994045;28;20039;-61
2023/05/13 00:52:33;;;;;;;13.77;11.50;;;;;;;;;;4982027;28;20113;-62
2023/05/13 00:54:59;;;;;;;15.68;12.65;;;;;;;;;;4977380;28;20092;-67
2023/05/13 00:57:24;;;;;;;16.60;12.45;;;;;;;;;;4978252;28;20468;-60
2023/05/13 00:59:50;;;;;;;14.13;12.63;;;;;;;;;;4962915;28;20100;-62
2023/05/13 01:02:21;;;;;;;15.68;12.02;;;;;;;;;;4984718;28;20121;-62
2023/05/13 01:05:07;;;;;;;15.90;12.10;;;;;;;;;;4988774;28;20096;-62
2023/05/13 01:07:36;;;;;;;16.70;12.55;;;;;;;;;;4983605;28;20068;-62
2023/05/13 01:10:10;;;;;;;16.58;12.90;;;;;;;;;;4982901;28;20198;-61
2023/05/13 01:12:37;;;;;;;14.10;11.95;;;;;;;;;;4985137;28;20073;-63
2023/05/13 01:15:14;;;;;;;15.85;12.85;;;;;;;;;;4982904;28;20507;-60
2023/05/13 01:17:41;;;;;;;18.75;12.85;;;;;;;;;;4982767;28;20050;-62
2023/05/13 01:20:07;;;;;;;14.43;11.32;;;;;;;;;;4983951;28;20890;-62
2023/05/13 01:22:32;;;;;;;13.68;11.90;;;;;;;;;;4983078;28;20400;-64
2023/05/13 01:24:58;;;;;;;13.52;11.63;;;;;;;;;;4966449;28;20486;-61
2023/05/13 01:27:24;;;;;;;17.75;12.82;;;;;;;;;;4997332;28;20073;-62
2023/05/13 01:29:51;;;;;;;15.20;11.98;;;;;;;;;;4972794;28;20109;-62
2023/05/13 01:32:22;;;;;;;17.58;12.57;;;;;;;;;;4996656;28;20038;-61
2023/05/13 01:34:49;;;;;;;13.77;12.10;;;;;;;;;;4995151;28;20105;-62
2023/05/13 01:37:14;;;;;;;16.05;11.90;;;;;;;;;;4983994;28;20057;-62
2023/05/13 01:39:41;;;;;;;16.60;12.60;;;;;;;;;;4973392;28;20038;-62
2023/05/13 01:42:11;;;;;;;16.73;12.40;;;;;;;;;;4981054;28;20625;-62
2023/05/13 01:44:36;;;;;;;15.43;12.48;;;;;;;;;;4982361;28;20096;-62
2023/05/13 01:47:02;;;;;;;18.52;13.55;;;;;;;;;;4996278;28;20031;-61
2023/05/13 01:49:28;;;;;;;16.38;13.40;;;;;;;;;;4985776;28;20571;-62
2023/05/13 01:51:54;;;;;;;16.13;12.55;;;;;;;;;;4979990;28;20039;-62
2023/05/13 01:54:19;;;;;;;15.18;12.52;;;;;;;;;;4982267;28;20327;-62
2023/05/13 01:56:51;;;;;;;18.13;12.95;;;;;;;;;;4987951;28;20048;-63
2023/05/13 01:59:17;;;;;;;15.50;11.63;;;;;;;;;;4998736;28;20112;-61
2023/05/13 02:01:44;;;;;;;17.30;12.88;;;;;;;;;;4984405;28;20042;-61
2023/05/13 02:04:10;;;;;;;16.38;12.15;;;;;;;;;;4982867;28;20073;-61
2023/05/13 02:06:35;;;;;;;16.77;12.18;;;;;;;;;;4978308;28;20074;-61
2023/05/13 02:09:01;;;;;;;15.77;12.23;;;;;;;;;;4971522;28;20125;-63
2023/05/13 02:11:27;;;;;;;16.42;11.95;;;;;;;;;;4994876;28;20121;-61
2023/05/13 02:13:55;;;;;;;15.70;13.13;;;;;;;;;;4980597;28;20354;-59
2023/05/13 02:16:21;;;;;;;15.05;11.80;;;;;;;;;;4974056;28;20030;-61
2023/05/13 02:18:46;;;;;;;14.75;11.55;;;;;;;;;;4980962;28;20094;-59
2023/05/13 02:21:12;;;;;;;17.58;12.93;;;;;;;;;;4979827;28;20070;-61
2023/05/13 02:23:37;;;;;;;16.77;12.15;;;;;;;;;;4989041;28;20572;-61
2023/05/13 02:26:03;;;;;;;15.73;11.63;;;;;;;;;;4984573;28;20038;-61
2023/05/13 02:28:28;;;;;;;15.82;12.15;;;;;;;;;;4983523;28;20089;-60
2023/05/13 02:30:54;;;;;;;16.58;12.38;;;;;;;;;;4981114;28;20038;-62
2023/05/13 02:33:19;;;;;;;16.58;12.35;;;;;;;;;;4982270;28;20038;-63
2023/05/13 02:35:45;;;;;;;14.90;10.88;;;;;;;;;;4982049;28;20394;-62
2023/05/13 02:38:11;;;;;;;14.55;11.35;;;;;;;;;;4985717;28;20037;-62
2023/05/13 02:40:36;;;;;;;18.52;12.68;;;;;;;;;;4980626;28;20085;-61
2023/05/13 02:43:02;;;;;;;12.88;10.93;;;;;;;;;;4963658;28;20038;-62
2023/05/13 02:45:40;;;;;;;14.60;11.68;;;;;;;;;;4987108;28;20333;-61
2023/05/13 02:48:06;;;;;;;15.07;11.80;;;;;;;;;;4979524;28;20092;-60
2023/05/13 02:50:33;;;;;;;16.08;11.85;;;;;;;;;;4981202;28;20461;-60
2023/05/13 02:52:58;;;;;;;15.73;11.35;;;;;;;;;;4993171;28;20034;-60
2023/05/13 02:55:24;;;;;;;13.73;11.18;;;;;;;;;;4968189;28;20027;-61
2023/05/13 02:57:49;;;;;;;14.30;12.40;;;;;;;;;;4979400;28;20049;-61
2023/05/13 03:00:15;;;;;;;13.02;11.05;;;;;;;;;;4996774;28;20050;-62
2023/05/13 03:02:41;;;;;;;15.90;10.65;;;;;;;;;;4980682;28;20060;-61
2023/05/13 03:05:06;;;;;;;12.60;10.10;;;;;;;;;;4972423;28;20708;-61
2023/05/13 03:07:32;;;;;;;13.68;11.38;;;;;;;;;;4983487;28;20035;-61
2023/05/13 03:09:58;;;;;;;15.57;11.98;;;;;;;;;;4981290;28;20121;-64
2023/05/13 03:12:23;;;;;;;14.52;10.52;;;;;;;;;;4980146;28;20153;-62
2023/05/13 03:14:49;;;;;;;12.98;9.52;;;;;;;;;;4993896;28;20045;-61
2023/05/13 03:17:15;;;;;;;11.50;9.50;;;;;;;;;;4979749;28;20082;-60
2023/05/13 03:19:41;;;;;;;12.52;9.80;;;;;;;;;;4964390;28;20049;-61
2023/05/13 03:22:06;;;;;;;12.50;10.85;;;;;;;;;;4985562;28;20038;-63
2023/05/13 03:24:32;;;;;;;11.27;9.93;;;;;;;;;;4993461;28;20130;-62
2023/05/13 03:26:58;;;;;;;12.82;10.60;;;;;;;;;;4983287;28;20475;-59
2023/05/13 03:29:25;;;;;;;16.35;10.75;;;;;;;;;;4983140;28;20156;-61
2023/05/13 03:31:53;;;;;;;11.80;9.40;;;;;;;;;;4983281;28;20034;-61
2023/05/13 03:34:18;;;;;;;12.15;10.18;;;;;;;;;;4995700;28;20042;-61
2023/05/13 03:36:44;;;;;;;15.82;9.30;;;;;;;;;;4979490;28;20503;-61
2023/05/13 03:39:10;;;;;;;9.75;8.45;;;;;;;;;;4976395;28;20042;-60
2023/05/13 03:41:37;;;;;;;13.80;9.98;;;;;;;;;;4983053;28;20038;-61
2023/05/13 03:44:02;;;;;;;13.32;8.98;;;;;;;;;;4976661;28;20068;-61
2023/05/13 03:46:28;;;;;;;13.27;8.82;;;;;;;;;;4981799;28;20023;-61
2023/05/13 03:48:54;;;;;;;10.98;9.18;;;;;;;;;;4979328;28;20110;-61
2023/05/13 03:51:21;;;;;;;10.85;8.45;;;;;;;;;;4982568;28;20417;-60
2023/05/13 03:53:46;;;;;;;10.05;8.90;;;;;;;;;;4963799;28;20624;-62
2023/05/13 03:56:12;;;;;;;11.13;9.85;;;;;;;;;;4979438;28;20494;-61
2023/05/13 03:58:38;;;;;;;11.32;9.50;;;;;;;;;;4982129;28;20593;-61
2023/05/13 04:01:03;;;;;;;12.32;9.85;;;;;;;;;;4968977;28;20050;-61
2023/05/13 04:03:30;;;;;;;12.02;10.07;;;;;;;;;;4980846;28;20441;-61
2023/05/13 04:05:55;;;;;;;15.13;11.02;;;;;;;;;;4978916;28;20413;-63
2023/05/13 04:08:21;;;;;;;11.48;9.68;;;;;;;;;;4978230;28;20054;-63
2023/05/13 04:10:47;;;;;;;13.15;10.45;;;;;;;;;;4984507;28;20484;-61
2023/05/13 04:13:13;;;;;;;11.05;9.38;;;;;;;;;;4979748;28;20050;-62
2023/05/13 04:15:38;;;;;;;13.27;10.65;;;;;;;;;;4983180;28;20433;-62
2023/05/13 04:18:04;;;;;;;13.60;10.55;;;;;;;;;;4981643;28;20522;-62
2023/05/13 04:20:30;;;;;;;14.52;10.40;;;;;;;;;;4979769;28;20034;-62
2023/05/13 04:22:55;;;;;;;14.57;10.85;;;;;;;;;;4980278;28;20458;-63
2023/05/13 04:25:24;;;;;;;11.10;9.82;;;;;;;;;;4980988;28;20038;-62
2023/05/13 04:27:49;;;;;;;14.90;10.27;;;;;;;;;;4981438;28;20018;-63
2023/05/13 04:30:27;;;;;;;13.50;9.93;;;;;;;;;;4992468;28;20038;-61
2023/05/13 04:32:52;;;;;;;12.65;10.35;;;;;;;;;;4981795;28;20038;-62
2023/05/13 04:35:18;;;;;;;11.23;10.13;;;;;;;;;;4997388;28;20037;-62
2023/05/13 04:37:48;;;;;;;15.70;11.52;;;;;;;;;;4987418;28;20556;-62
2023/05/13 04:40:15;;;;;;;13.02;10.60;;;;;;;;;;4988505;28;20109;-62
2023/05/13 04:42:41;;;;;;;13.60;11.27;;;;;;;;;;4989469;28;20027;-62
2023/05/13 04:45:06;;;;;;;13.65;10.63;;;;;;;;;;4984665;28;20034;-62
2023/05/13 04:47:34;;;;;;;12.63;10.63;;;;;;;;;;4982244;28;20598;-62
2023/05/13 04:49:59;;;;;;;18.05;11.38;;;;;;;;;;4990972;28;20505;-61
2023/05/13 04:52:25;;;;;;;13.73;10.75;;;;;;;;;;4982760;28;20042;-63
2023/05/13 04:54:50;;;;;;;14.63;11.50;;;;;;;;;;4984036;28;20517;-63
2023/05/13 04:57:16;;;;;;;13.25;10.43;;;;;;;;;;4987247;28;20030;-61
2023/05/13 04:59:42;;;;;;;13.02;11.23;;;;;;;;;;4999451;28;20050;-62
2023/05/13 05:02:09;;;;;;;16.73;10.68;;;;;;;;;;4990380;28;20042;-62
2023/05/13 05:04:35;;;;;;;17.95;11.32;;;;;;;;;;4978544;28;20043;-62
2023/05/13 05:07:03;;;;;;;14.25;12.05;;;;;;;;;;4986284;28;20614;-62
2023/05/13 05:09:30;;;;;;;16.60;11.63;;;;;;;;;;4986633;28;20052;-63
2023/05/13 05:11:56;;;;;;;12.65;10.50;;;;;;;;;;4980627;28;20498;-62
2023/05/13 05:14:25;;;;;;;14.13;10.05;;;;;;;;;;4983785;28;20042;-63
2023/05/13 05:16:51;;;;;;;14.32;9.98;;;;;;;;;;4972603;28;20129;-62
2023/05/13 05:19:16;;;;;;;14.70;12.63;;;;;;;;;;4985743;28;20035;-62
2023/05/13 05:21:42;;;;;;;18.63;11.15;;;;;;;;;;4989375;28;20042;-63
2023/05/13 05:24:08;;;;;;;13.77;10.75;;;;;;;;;;4986159;28;20488;-62
2023/05/13 05:26:33;;;;;;;13.45;11.50;;;;;;;;;;4982789;28;20577;-62
2023/05/13 05:29:00;;;;;;;17.17;12.40;;;;;;;;;;4973388;28;20049;-61
2023/05/13 05:31:26;;;;;;;16.52;10.93;;;;;;;;;;4973373;28;20042;-63
2023/05/13 05:33:52;;;;;;;11.80;9.90;;;;;;;;;;4989039;28;20133;-62
2023/05/13 05:36:19;;;;;;;12.45;9.82;;;;;;;;;;4979705;28;20045;-61
2023/05/13 05:38:46;;;;;;;11.75;9.75;;;;;;;;;;4982107;28;20069;-62
2023/05/13 05:41:12;;;;;;;12.88;10.88;;;;;;;;;;4982432;28;20487;-60
2023/05/13 05:43:37;;;;;;;13.95;10.60;;;;;;;;;;4999217;28;20319;-63
2023/05/13 05:46:03;;;;;;;13.05;11.43;;;;;;;;;;4994527;28;20062;-59
2023/05/13 05:48:29;;;;;;;16.00;12.57;;;;;;;;;;4985441;28;20122;-60
2023/05/13 05:50:55;;;;;;;17.92;12.02;;;;;;;;;;4997422;28;20038;-61
2023/05/13 05:53:27;;;;;;;13.73;11.05;;;;;;;;;;4996619;28;20039;-61
2023/05/13 05:55:53;;;;;;;15.35;11.98;;;;;;;;;;4979178;28;20040;-61
2023/05/13 05:58:19;;;;;;;15.85;12.38;;;;;;;;;;4982199;28;20172;-60
2023/05/13 06:00:45;;;;;;;14.63;12.07;;;;;;;;;;4981620;28;20390;-61
2023/05/13 06:03:11;;;;;;;14.70;11.93;;;;;;;;;;4988547;28;20046;-61
2023/05/13 06:05:37;;;;;;;15.63;12.85;;;;;;;;;;4978163;28;20030;-60
2023/05/13 06:08:03;;;;;;;16.55;12.55;;;;;;;;;;4994683;28;20501;-61
2023/05/13 06:10:29;;;;;;;14.05;11.05;;;;;;;;;;4981455;28;20042;-62
2023/05/13 06:12:55;;;;;;;15.98;12.38;;;;;;;;;;4982122;28;20554;-60
2023/05/13 06:15:21;;;;;;;17.33;12.75;;;;;;;;;;4994395;28;20489;-59
2023/05/13 06:17:46;;;;;;;20.02;13.48;;;;;;;;;;4981178;28;20468;-61
2023/05/13 06:20:12;;;;;;;17.35;13.23;;;;;;;;;;4979792;28;20129;-61
2023/05/13 06:22:37;;;;;;;16.10;13.00;;;;;;;;;;4982971;28;20406;-62
2023/05/13 06:25:03;;;;;;;18.17;13.02;;;;;;;;;;4984894;28;20046;-62
2023/05/13 06:27:28;;;;;;;20.88;14.68;;;;;;;;;;4980563;28;20025;-62
2023/05/13 06:29:54;;;;;;;16.83;13.63;;;;;;;;;;4980587;28;20550;-61
2023/05/13 06:32:19;;;;;;;16.23;13.40;;;;;;;;;;4981142;28;20034;-60
2023/05/13 06:34:45;;;;;;;13.18;11.15;;;;;;;;;;4983391;28;20074;-60
2023/05/13 06:37:12;;;;;;;17.23;12.95;;;;;;;;;;4984921;28;20030;-61
2023/05/13 06:39:38;;;;;;;15.52;12.80;;;;;;;;;;4987297;28;20631;-61
2023/05/13 06:42:04;;;;;;;14.10;11.93;;;;;;;;;;4977106;28;20049;-61
2023/05/13 06:44:32;;;;;;;15.65;13.48;;;;;;;;;;4987610;28;20511;-61
2023/05/13 06:46:57;;;;;;;14.27;12.32;;;;;;;;;;4981517;28;20062;-61
2023/05/13 06:49:23;;;;;;;15.32;12.45;;;;;;;;;;4985798;28;20038;-61
2023/05/13 06:51:49;;;;;;;15.35;12.20;;;;;;;;;;4983514;28;20171;-61
2023/05/13 06:54:15;;;;;;;15.40;12.02;;;;;;;;;;4977102;28;20701;-61
2023/05/13 06:56:41;;;;;;;14.57;12.15;;;;;;;;;;4982167;28;20560;-61
2023/05/13 06:59:07;;;;;;;16.63;12.75;;;;;;;;;;4980134;28;21396;-61
2023/05/13 07:01:32;;;;;;;17.55;13.30;;;;;;;;;;4982799;28;20077;-62
2023/05/13 07:03:57;;;;;;;16.27;13.30;;;;;;;;;;4979544;28;20500;-62
2023/05/13 07:06:23;;;;;;;15.73;12.30;;;;;;;;;;4977705;28;20118;-61
2023/05/13 07:08:48;;;;;;;17.42;12.23;;;;;;;;;;4980724;28;20421;-60
2023/05/13 07:11:14;;;;;;;18.13;14.00;;;;;;;;;;4981200;28;20042;-60
2023/05/13 07:13:39;;;;;;;16.58;12.40;;;;;;;;;;4978532;28;20041;-62
2023/05/13 07:16:05;;;;;;;16.67;12.93;;;;;;;;;;4978738;28;20030;-61
2023/05/13 07:18:30;;;;;;;22.77;14.23;;;;;;;;;;4981544;28;20413;-61
2023/05/13 07:20:56;;;;;;;15.43;13.05;;;;;;;;;;4982386;28;20045;-61
2023/05/13 07:23:24;;;;;;;15.32;12.93;;;;;;;;;;4978216;28;20848;-61
2023/05/13 07:25:50;;;;;;;18.60;14.50;;;;;;;;;;4979323;28;20267;-59
2023/05/13 07:28:19;;;;;;;16.30;11.98;;;;;;;;;;4980512;28;20398;-61
2023/05/13 07:30:45;;;;;;;14.32;12.25;;;;;;;;;;4983427;28;20497;-60
2023/05/13 07:33:10;;;;;;;15.20;13.05;;;;;;;;;;4986038;28;20026;-61
2023/05/13 07:35:36;;;;;;;14.02;12.57;;;;;;;;;;4979443;28;20541;-60
2023/05/13 07:38:01;;;;;;;16.38;13.07;;;;;;;;;;4982542;28;20095;-60
2023/05/13 07:40:27;;;;;;;18.50;13.50;;;;;;;;;;4980430;28;20160;-60
2023/05/13 07:42:52;;;;;;;14.48;12.52;;;;;;;;;;4978402;28;20175;-65
2023/05/13 07:45:18;;;;;;;14.75;12.57;;;;;;;;;;4981602;28;20042;-62
2023/05/13 07:47:43;;;;;;;16.67;13.23;;;;;;;;;;4980481;28;20034;-61
2023/05/13 07:50:09;;;;;;;14.52;12.02;;;;;;;;;;4978313;28;20195;-61
2023/05/13 07:52:35;;;;;;;14.27;12.77;;;;;;;;;;4981787;28;20050;-60
2023/05/13 07:55:01;;;;;;;17.98;13.15;;;;;;;;;;4981729;28;20389;-61
2023/05/13 07:57:26;;;;;;;17.90;14.63;;;;;;;;;;4979061;28;20042;-60
2023/05/13 07:59:53;;;;;;;15.30;12.82;;;;;;;;;;4981698;28;20038;-61
2023/05/13 08:02:18;;;;;;;11.48;9.35;;;;;;;;;;4979762;28;20444;-61
2023/05/13 08:04:44;;;;;;;13.50;11.18;;;;;;;;;;4980083;28;20023;-61
2023/05/13 08:07:10;;;;;;;14.55;11.35;;;;;;;;;;4986150;28;20041;-62
2023/05/13 08:09:36;;;;;;;13.82;12.35;;;;;;;;;;4978291;28;20058;-61
2023/05/13 08:12:01;;;;;;;14.00;10.68;;;;;;;;;;4978267;28;20046;-59
2023/05/13 08:14:27;;;;;;;21.20;14.50;;;;;;;;;;4979752;28;20038;-60
2023/05/13 08:16:52;;;;;;;16.63;13.52;;;;;;;;;;4981410;28;20535;-60
2023/05/13 08:19:18;;;;;;;15.65;12.55;;;;;;;;;;4981029;28;20029;-60
2023/05/13 08:21:43;;;;;;;14.05;11.73;;;;;;;;;;4981048;28;20600;-60
2023/05/13 08:24:09;;;;;;;15.23;11.50;;;;;;;;;;4987775;28;20488;-60
2023/05/13 08:26:34;;;;;;;17.58;14.32;;;;;;;;;;4980838;28;20471;-61
2023/05/13 08:29:00;;;;;;;15.30;12.57;;;;;;;;;;4980403;28;20497;-59
2023/05/13 08:31:25;;;;;;;18.85;12.23;;;;;;;;;;4981444;28;20053;-59
2023/05/13 08:33:52;;;;;;;14.57;12.65;;;;;;;;;;4979641;28;20029;-61
2023/05/13 08:36:17;;;;;;;19.20;13.57;;;;;;;;;;4978990;28;20514;-60
2023/05/13 08:38:43;;;;;;;15.55;13.85;;;;;;;;;;4979214;28;20126;-61
2023/05/13 08:41:11;;;;;;;15.60;12.50;;;;;;;;;;4976667;28;20062;-58
2023/05/13 08:43:37;;;;;;;15.32;13.00;;;;;;;;;;4978177;28;20030;-60
2023/05/13 08:46:03;;;;;;;17.67;13.88;;;;;;;;;;4980230;28;20493;-60
2023/05/13 08:48:29;;;;;;;13.95;12.45;;;;;;;;;;4979611;28;20119;-59
2023/05/13 08:50:55;;;;;;;14.48;12.55;;;;;;;;;;4980559;28;20093;-61
2023/05/13 08:53:21;;;;;;;15.90;14.07;;;;;;;;;;4979855;28;20042;-59
2023/05/13 08:55:47;;;;;;;16.35;13.02;;;;;;;;;;4979584;28;20097;-58
2023/05/13 08:58:12;;;;;;;18.25;14.43;;;;;;;;;;4980038;28;20125;-59
2023/05/13 09:00:38;;;;;;;17.08;14.13;;;;;;;;;;4978614;28;20118;-61
2023/05/13 09:03:03;;;;;;;17.15;14.27;;;;;;;;;;4982135;28;20192;-58
2023/05/13 09:05:30;;;;;;;14.80;12.25;;;;;;;;;;4979457;28;20074;-60
2023/05/13 09:07:56;;;;;;;17.42;14.38;;;;;;;;;;4981646;28;20567;-60
2023/05/13 09:10:21;;;;;;;16.40;12.73;;;;;;;;;;4977260;28;20042;-57
2023/05/13 09:12:48;;;;;;;17.27;12.75;;;;;;;;;;4978311;28;20165;-57
2023/05/13 09:15:15;;;;;;;15.40;12.10;;;;;;;;;;4978253;28;20088;-61
2023/05/13 09:17:41;;;;;;;17.25;13.13;;;;;;;;;;4977711;28;20610;-59
2023/05/13 09:20:07;;;;;;;20.83;15.80;;;;;;;;;;4979635;28;20119;-59
2023/05/13 09:22:33;;;;;;;24.45;16.52;;;;;;;;;;4982550;28;20041;-59
2023/05/13 09:24:58;;;;;;;21.55;13.75;;;;;;;;;;4981190;28;20043;-59
2023/05/13 09:27:37;;;;;;;18.60;13.27;;;;;;;;;;4987009;28;20045;-58
2023/05/13 09:30:03;;;;;;;21.88;13.75;;;;;;;;;;4981910;28;20038;-59
2023/05/13 09:32:28;;;;;;;19.85;13.57;;;;;;;;;;4986085;28;20490;-60
2023/05/13 09:34:54;;;;;;;15.48;13.27;;;;;;;;;;4984768;28;20040;-59
2023/05/13 09:37:22;;;;;;;16.75;12.82;;;;;;;;;;4981706;28;20467;-61
2023/05/13 09:39:50;;;;;;;19.30;12.63;;;;;;;;;;4980467;28;20064;-60
2023/05/13 09:42:16;;;;;;;15.25;12.10;;;;;;;;;;4981956;28;20152;-59
2023/05/13 09:44:42;;;;;;;18.67;12.13;;;;;;;;;;4984634;28;20457;-59
2023/05/13 09:47:17;;;;;;;17.25;13.02;;;;;;;;;;4980599;28;20573;-61
2023/05/13 09:49:43;;;;;;;21.58;14.60;;;;;;;;;;4979250;28;20030;-58
2023/05/13 09:52:10;;;;;;;17.65;12.82;;;;;;;;;;4980599;28;20852;-59
2023/05/13 09:54:38;;;;;;;19.40;12.25;;;;;;;;;;4981777;28;20371;-59
2023/05/13 09:57:05;;;;;;;18.55;12.77;;;;;;;;;;4983706;28;20053;-60
2023/05/13 09:59:31;;;;;;;17.13;12.82;;;;;;;;;;4984820;28;20038;-63
2023/05/13 10:01:58;;;;;;;16.40;12.15;;;;;;;;;;4980841;28;20045;-60
2023/05/13 10:04:24;;;;;;;24.20;15.57;;;;;;;;;;4983324;28;20050;-60
2023/05/13 10:06:50;;;;;;;16.58;13.10;;;;;;;;;;4980192;28;20062;-64
2023/05/13 10:09:15;;;;;;;18.40;13.15;;;;;;;;;;4979421;28;20050;-62
2023/05/13 10:11:43;;;;;;;17.60;12.48;;;;;;;;;;4982599;28;20034;-61
2023/05/13 10:14:09;;;;;;;15.85;12.13;;;;;;;;;;4979704;28;20089;-62
2023/05/13 10:16:34;;;;;;;15.32;12.23;;;;;;;;;;4980584;28;20605;-62
2023/05/13 10:19:00;;;;;;;17.80;13.07;;;;;;;;;;4981421;28;20149;-62
2023/05/13 10:21:26;;;;;;;16.05;11.57;;;;;;;;;;4979688;28;20046;-62
2023/05/13 10:23:51;;;;;;;14.32;12.45;;;;;;;;;;4979919;28;20049;-61
2023/05/13 10:26:18;;;;;;;13.57;10.77;;;;;;;;;;4979034;28;20034;-62
2023/05/13 10:28:44;;;;;;;17.48;13.38;;;;;;;;;;4981841;28;20577;-62
2023/05/13 10:31:09;;;;;;;16.48;13.73;;;;;;;;;;4980396;28;20060;-62
2023/05/13 10:33:35;;;;;;;16.58;13.02;;;;;;;;;;4980479;28;20034;-62
2023/05/13 10:36:08;;;;;;;20.02;13.30;;;;;;;;;;4984510;28;20342;-62
2023/05/13 10:38:37;;;;;;;16.60;12.10;;;;;;;;;;4980920;28;20632;-61
2023/05/13 10:41:10;;;;;;;19.85;13.25;;;;;;;;;;4983519;28;20034;-62
2023/05/13 10:43:36;;;;;;;19.80;13.05;;;;;;;;;;4982105;28;20394;-62
2023/05/13 10:46:06;;;;;;;16.23;12.45;;;;;;;;;;4981568;28;20387;-62
2023/05/13 10:48:42;;;;;;;14.65;12.15;;;;;;;;;;4978128;28;20404;-62
2023/05/13 10:51:08;;;;;;;17.27;12.77;;;;;;;;;;4979422;28;20146;-61
2023/05/13 10:53:52;;;;;;;16.65;12.88;;;;;;;;;;4977184;28;20040;-62
2023/05/13 10:56:18;;;;;;;16.38;11.25;;;;;;;;;;4980429;28;20033;-62
2023/05/13 10:58:56;;;;;;;14.43;11.48;;;;;;;;;;4977608;28;20042;-62
2023/05/13 11:01:28;;;;;;;13.85;10.88;;;;;;;;;;4981839;28;20038;-61
2023/05/13 11:03:59;;;;;;;14.23;11.60;;;;;;;;;;4981786;28;20046;-62
2023/05/13 11:06:38;;;;;;;13.55;11.50;;;;;;;;;;4981940;28;20125;-62
2023/05/13 11:09:04;;;;;;;14.70;11.48;;;;;;;;;;4981140;28;20449;-62
2023/05/13 11:11:31;;;;;;;14.75;11.95;;;;;;;;;;4981901;28;20505;-62
2023/05/13 11:14:02;;;;;;;14.02;11.15;;;;;;;;;;4981615;28;20169;-62
2023/05/13 11:16:27;;;;;;;13.80;10.30;;;;;;;;;;4980967;28;20073;-62
2023/05/13 11:18:53;;;;;;;15.18;11.10;;;;;;;;;;4982575;28;21007;-62
2023/05/13 11:21:32;;;;;;;14.20;10.70;;;;;;;;;;4980928;28;20487;-61
2023/05/13 11:24:02;;;;;;;16.17;10.55;;;;;;;;;;4970864;28;20089;-61
2023/05/13 11:26:44;;;;;;;11.80;10.38;;;;;;;;;;4979463;28;20076;-61
2023/05/13 11:29:10;;;;;;;16.38;11.48;;;;;;;;;;4978562;28;20038;-62
2023/05/13 11:31:48;;;;;;;15.63;11.02;;;;;;;;;;4980657;28;20046;-62
2023/05/13 11:34:15;;;;;;;14.60;11.63;;;;;;;;;;4981925;28;20037;-62
2023/05/13 11:36:42;;;;;;;16.48;11.43;;;;;;;;;;4981102;28;20502;-62
2023/05/13 11:39:10;;;;;;;14.27;11.40;;;;;;;;;;4975662;28;20035;-62
2023/05/13 11:41:40;;;;;;;13.35;11.82;;;;;;;;;;4979313;28;20254;-61
2023/05/13 11:44:06;;;;;;;16.63;11.75;;;;;;;;;;4980673;28;20066;-61
2023/05/13 11:46:31;;;;;;;17.95;11.95;;;;;;;;;;4978885;28;20034;-61
2023/05/13 11:48:57;;;;;;;13.60;11.65;;;;;;;;;;4977696;28;20492;-62
2023/05/13 11:51:24;;;;;;;13.23;11.07;;;;;;;;;;4980010;28;20046;-62
2023/05/13 11:53:49;;;;;;;16.73;12.10;;;;;;;;;;4980192;28;20042;-62
2023/05/13 11:56:15;;;;;;;14.02;11.43;;;;;;;;;;4976344;28;20045;-61
2023/05/13 11:58:40;;;;;;;16.25;11.90;;;;;;;;;;4981267;28;20044;-62
2023/05/13 12:01:11;;;;;;;13.95;12.27;;;;;;;;;;4978357;28;20477;-61
2023/05/13 12:03:36;;;;;;;14.35;11.50;;;;;;;;;;4978931;28;20042;-60
2023/05/13 12:06:02;;;;;;;20.88;14.32;;;;;;;;;;4978540;28;20046;-61
2023/05/13 12:08:28;;;;;;;13.20;11.55;;;;;;;;;;4980084;28;20542;-62
2023/05/13 12:10:54;;;;;;;13.75;11.00;;;;;;;;;;4979171;28;20045;-62
2023/05/13 12:13:20;;;;;;;13.30;10.63;;;;;;;;;;4996779;28;20022;-63
2023/05/13 12:15:47;;;;;;;12.57;10.75;;;;;;;;;;4979633;28;20078;-61
2023/05/13 12:18:13;;;;;;;17.45;12.40;;;;;;;;;;4979274;28;20057;-61
2023/05/13 12:20:39;;;;;;;15.00;11.07;;;;;;;;;;4980193;28;21087;-61
2023/05/13 12:23:05;;;;;;;11.48;10.02;;;;;;;;;;4980049;28;20042;-62
2023/05/13 12:25:30;;;;;;;14.02;10.05;;;;;;;;;;4981252;28;20042;-61
2023/05/13 12:27:56;;;;;;;16.15;10.90;;;;;;;;;;4980043;28;20417;-61
2023/05/13 12:30:21;;;;;;;12.05;9.52;;;;;;;;;;4979924;28;20080;-61
2023/05/13 12:32:47;;;;;;;12.82;10.45;;;;;;;;;;4976922;28;20409;-61
2023/05/13 12:35:15;;;;;;;15.30;10.40;;;;;;;;;;4979958;28;20046;-61
2023/05/13 12:37:41;;;;;;;12.55;10.63;;;;;;;;;;4981727;28;20027;-62
2023/05/13 12:40:10;;;;;;;18.65;13.10;;;;;;;;;;4980342;28;20057;-62
2023/05/13 12:42:36;;;;;;;15.60;12.18;;;;;;;;;;4980273;28;20042;-62
2023/05/13 12:45:01;;;;;;;14.98;11.32;;;;;;;;;;4980339;28;20410;-62
2023/05/13 12:47:27;;;;;;;14.40;10.98;;;;;;;;;;4980260;28;20102;-64
2023/05/13 12:49:53;;;;;;;15.23;11.30;;;;;;;;;;4978900;28;20484;-62
2023/05/13 12:52:20;;;;;;;15.50;12.50;;;;;;;;;;4977826;28;20500;-62
2023/05/13 12:54:46;;;;;;;24.45;17.33;;;;;;;;;;4979416;28;20074;-62
2023/05/13 12:57:11;;;;;;;20.85;14.80;;;;;;;;;;4982519;28;20563;-61
2023/05/13 12:59:37;;;;;;;18.25;13.20;;;;;;;;;;4983733;28;20469;-62
2023/05/13 13:02:02;;;;;;;12.75;10.25;;;;;;;;;;4982238;28;20158;-62
2023/05/13 13:04:28;;;;;;;14.80;9.85;;;;;;;;;;4981949;28;20050;-62
2023/05/13 13:06:53;;;;;;;12.85;10.50;;;;;;;;;;4982715;28;20060;-62
2023/05/13 13:09:19;;;;;;;15.73;10.38;;;;;;;;;;4982858;28;20647;-62
2023/05/13 13:11:45;;;;;;;14.70;11.48;;;;;;;;;;4978261;28;20034;-62
2023/05/13 13:14:10;;;;;;;17.65;11.10;;;;;;;;;;4979288;28;20026;-62
2023/05/13 13:16:36;;;;;;;12.80;10.32;;;;;;;;;;4983262;28;20048;-63
2023/05/13 13:19:02;;;;;;;14.18;10.32;;;;;;;;;;4982734;28;20229;-62
2023/05/13 13:21:27;;;;;;;14.38;12.20;;;;;;;;;;4985911;28;20046;-63
2023/05/13 13:23:53;;;;;;;16.23;12.75;;;;;;;;;;4983808;28;20470;-62
2023/05/13 13:26:18;;;;;;;18.33;13.80;;;;;;;;;;4984904;28;20069;-62
2023/05/13 13:28:44;;;;;;;18.63;14.02;;;;;;;;;;4982708;28;20409;-63
2023/05/13 13:31:10;;;;;;;17.98;12.90;;;;;;;;;;4983945;28;20022;-62
2023/05/13 13:33:36;;;;;;;16.13;13.15;;;;;;;;;;4982576;28;20038;-62
2023/05/13 13:36:01;;;;;;;17.23;13.27;;;;;;;;;;4981833;28;20413;-63
2023/05/13 13:38:27;;;;;;;19.70;13.73;;;;;;;;;;4984701;28;20034;-63
2023/05/13 13:40:52;;;;;;;21.33;14.93;;;;;;;;;;4984096;28;20042;-62
2023/05/13 13:43:18;;;;;;;18.88;13.15;;;;;;;;;;4985023;28;20038;-62
2023/05/13 13:45:44;;;;;;;18.40;13.07;;;;;;;;;;4981828;28;20039;-62
2023/05/13 13:48:10;;;;;;;21.75;13.80;;;;;;;;;;4982998;28;20058;-64
2023/05/13 13:50:35;;;;;;;18.52;13.55;;;;;;;;;;4982457;28;20141;-62
2023/05/13 13:53:01;;;;;;;18.20;13.40;;;;;;;;;;4981593;28;20066;-63
2023/05/13 13:55:26;;;;;;;17.27;14.10;;;;;;;;;;4985512;28;20456;-62
2023/05/13 13:57:52;;;;;;;20.25;14.75;;;;;;;;;;4981277;28;20049;-62
2023/05/13 14:00:17;;;;;;;16.67;13.85;;;;;;;;;;4971280;28;20026;-63
2023/05/13 14:02:43;;;;;;;24.08;16.55;;;;;;;;;;4984015;28;20927;-63
2023/05/13 14:05:08;;;;;;;22.02;15.68;;;;;;;;;;4985044;28;20485;-62
2023/05/13 14:07:34;;;;;;;17.50;13.77;;;;;;;;;;4981701;28;20030;-63
2023/05/13 14:10:00;;;;;;;20.52;14.48;;;;;;;;;;4982435;28;20034;-62
2023/05/13 14:12:25;;;;;;;20.13;13.57;;;;;;;;;;4980157;28;20054;-63
2023/05/13 14:14:53;;;;;;;15.85;13.20;;;;;;;;;;4977955;28;20277;-62